createdAt,value
2023-05-25T00:03:40.497Z,102017.25
2023-05-25T00:14:21.273Z,102008.78
2023-05-25T00:25:01.929Z,102008.06
2023-05-25T00:35:43.276Z,102010.97
2023-05-25T00:46:24.297Z,102022.03
2023-05-25T00:57:07.895Z,102013.19
2023-05-25T01:07:50.566Z,102026.03
2023-05-25T01:18:31.435Z,102034.88
2023-05-25T01:29:13.596Z,102037.84
2023-05-25T01:39:54.016Z,102039.00
2023-05-25T01:50:57.884Z,102055.25
2023-05-25T02:01:41.229Z,102058.47
2023-05-25T02:12:21.742Z,102047.44
2023-05-25T02:23:02.106Z,102040.22
2023-05-25T02:33:42.789Z,102046.69
2023-05-25T02:44:23.577Z,102048.31
2023-05-25T02:55:05.925Z,102042.28
2023-05-25T03:05:47.368Z,102043.84
2023-05-25T03:16:28.172Z,102058.59
2023-05-25T03:27:09.065Z,102075.88
2023-05-25T03:37:49.682Z,102086.31
2023-05-25T03:48:30.046Z,102099.78
2023-05-25T03:59:10.771Z,102095.47
2023-05-25T04:09:51.069Z,102099.91
2023-05-25T04:20:31.677Z,102100.59
2023-05-25T04:31:13.321Z,102106.78
2023-05-25T04:41:53.860Z,102125.53
2023-05-25T04:52:34.794Z,102137.00
2023-05-25T05:03:15.229Z,102154.97
2023-05-25T05:13:56.541Z,102149.31
2023-05-25T05:24:37.396Z,102160.84
2023-05-25T05:35:17.683Z,102167.81
2023-05-25T05:45:58.320Z,102175.53
2023-05-25T05:56:39.122Z,102198.50
2023-05-25T06:07:20.977Z,102202.84
2023-05-25T06:18:01.760Z,102193.06
2023-05-25T06:28:42.316Z,102204.78
2023-05-25T06:39:22.716Z,102202.97
2023-05-25T06:50:03.778Z,102217.59
2023-05-25T07:00:45.451Z,102240.38
2023-05-25T07:11:27.942Z,102235.38
2023-05-25T07:22:08.404Z,102240.78
2023-05-25T07:32:48.514Z,102237.41
2023-05-25T07:43:29.002Z,102251.31
2023-05-25T07:54:10.606Z,102253.91
2023-05-25T08:04:52.104Z,102262.66
2023-05-25T08:15:32.816Z,102267.81
2023-05-25T08:37:00.407Z,102272.16
2023-05-25T08:47:44.977Z,102290.38
2023-05-25T08:58:32.864Z,102293.03
2023-05-25T09:09:13.494Z,102300.00
2023-05-25T09:19:54.638Z,102314.00
2023-05-25T09:30:36.140Z,102307.84
2023-05-25T09:41:16.768Z,102316.50
2023-05-25T09:51:57.284Z,102310.41
2023-05-25T10:02:38.137Z,102314.75
2023-05-25T10:13:22.840Z,102320.81
2023-05-25T10:24:10.433Z,102329.56
2023-05-25T10:34:52.805Z,102320.75
2023-05-25T10:45:34.053Z,102325.97
2023-05-25T10:56:14.589Z,102325.97
2023-05-25T11:07:16.442Z,102332.19
2023-05-25T11:18:01.418Z,102321.63
2023-05-25T11:28:47.034Z,102304.13
2023-05-25T11:39:27.738Z,102286.63
2023-05-25T11:50:14.887Z,102277.00
2023-05-25T12:00:55.553Z,102275.06
2023-05-25T12:11:45.333Z,102272.53
2023-05-25T12:22:26.000Z,102267.25
2023-05-25T12:33:06.847Z,102248.09
2023-05-25T12:43:47.381Z,102240.13
2023-05-25T12:54:34.923Z,102232.19
2023-05-25T13:05:23.805Z,102238.31
2023-05-25T13:16:04.589Z,102220.84
2023-05-25T13:26:48.093Z,102212.94
2023-05-25T13:37:30.026Z,102213.66
2023-05-25T13:47:50.832Z,102216.28
2023-05-25T13:58:11.209Z,102196.19
2023-05-25T14:08:51.464Z,102200.50
2023-05-25T14:19:12.030Z,102190.94
2023-05-25T14:29:32.535Z,102188.16
2023-05-25T14:39:52.662Z,102183.88
2023-05-25T14:50:12.820Z,102184.59
2023-05-25T15:00:53.188Z,102186.44
2023-05-25T15:11:13.621Z,102185.38
2023-05-25T15:21:54.209Z,102190.59
2023-05-25T15:32:34.734Z,102173.25
2023-05-25T15:42:55.210Z,102159.34
2023-05-25T15:53:16.308Z,102163.84
2023-05-25T16:03:37.175Z,102155.13
2023-05-25T16:13:57.707Z,102153.47
2023-05-25T16:24:18.061Z,102157.00
2023-05-25T16:34:38.251Z,102151.78
2023-05-25T16:44:58.306Z,102149.06
2023-05-25T16:55:18.621Z,102157.03
2023-05-25T17:05:39.055Z,102151.03
2023-05-25T17:15:59.314Z,102141.38
2023-05-25T17:26:19.539Z,102144.88
2023-05-25T17:36:59.844Z,102142.34
2023-05-25T17:47:40.553Z,102145.06
2023-05-25T17:58:22.304Z,102154.81
2023-05-25T18:09:04.248Z,102142.53
2023-05-25T18:19:44.751Z,102148.78
2023-05-25T18:30:25.189Z,102152.34
2023-05-25T18:41:05.716Z,102142.78
2023-05-25T18:51:46.505Z,102145.50
2023-05-25T19:02:29.063Z,102158.63
2023-05-25T19:13:10.188Z,102162.22
2023-05-25T19:23:51.660Z,102160.69
2023-05-25T19:34:32.664Z,102178.19
2023-05-25T19:45:13.418Z,102183.44
2023-05-25T19:55:53.748Z,102183.44
2023-05-25T20:06:34.234Z,102203.47
2023-05-25T20:17:15.062Z,102209.53
2023-05-25T20:27:55.361Z,102218.94
2023-05-25T20:38:35.812Z,102211.88
2023-05-25T20:49:16.295Z,102222.22
2023-05-25T20:59:59.776Z,102241.88
2023-05-25T21:10:41.327Z,102247.81
2023-05-25T21:21:21.868Z,102262.25
2023-05-25T21:32:02.196Z,102262.06
2023-05-25T21:42:42.970Z,102275.00
2023-05-25T21:53:23.680Z,102270.53
2023-05-25T22:04:04.487Z,102283.44
2023-05-25T22:14:44.932Z,102292.00
2023-05-25T22:25:25.979Z,102299.81
2023-05-25T22:36:06.922Z,102308.59
2023-05-25T22:46:47.576Z,102310.09
2023-05-25T22:57:28.494Z,102321.53
2023-05-25T23:08:09.118Z,102321.97
2023-05-25T23:18:51.370Z,102318.94
2023-05-25T23:29:32.499Z,102323.59
2023-05-25T23:40:13.325Z,102330.06
2023-05-25T23:50:53.650Z,102338.19
